createdAt,value
2023-03-04T00:00:48.016Z,-0.60
2023-03-04T00:03:15.797Z,-0.70
2023-03-04T00:05:43.449Z,-0.80
2023-03-04T00:08:10.905Z,-0.80
2023-03-04T00:10:38.169Z,-0.70
2023-03-04T00:13:05.369Z,-0.70
2023-03-04T00:15:32.521Z,-0.80
2023-03-04T00:17:59.685Z,-0.80
2023-03-04T00:20:27.097Z,-0.90
2023-03-04T00:22:54.412Z,-0.90
2023-03-04T00:25:21.565Z,-0.90
2023-03-04T00:27:48.711Z,-0.90
2023-03-04T00:30:16.295Z,-0.90
2023-03-04T00:32:43.567Z,-0.90
2023-03-04T00:35:11.098Z,-0.90
2023-03-04T00:37:38.484Z,-1.00
2023-03-04T00:40:06.327Z,-1.00
2023-03-04T00:42:33.520Z,-1.00
2023-03-04T00:45:00.912Z,-1.10
2023-03-04T00:47:28.141Z,-1.10
2023-03-04T00:49:55.427Z,-1.20
2023-03-04T00:52:22.881Z,-1.20
2023-03-04T00:54:50.005Z,-1.20
2023-03-04T00:57:17.460Z,-1.20
2023-03-04T00:59:46.470Z,-1.20
2023-03-04T01:02:13.932Z,-1.20
2023-03-04T01:04:41.971Z,-1.20
2023-03-04T01:07:09.438Z,-1.20
2023-03-04T01:09:36.570Z,-1.30
2023-03-04T01:12:04.044Z,-1.20
2023-03-04T01:14:31.447Z,-1.20
2023-03-04T01:16:58.920Z,-1.30
2023-03-04T01:19:26.390Z,-1.40
2023-03-04T01:21:53.578Z,-1.40
2023-03-04T01:24:20.748Z,-1.40
2023-03-04T01:26:47.890Z,-1.30
2023-03-04T01:29:15.087Z,-1.30
2023-03-04T01:31:42.504Z,-1.40
2023-03-04T01:34:10.145Z,-1.50
2023-03-04T01:36:37.663Z,-1.50
2023-03-04T01:39:05.664Z,-1.60
2023-03-04T01:41:33.484Z,-1.60
2023-03-04T01:44:02.597Z,-1.60
2023-03-04T01:46:31.843Z,-1.60
2023-03-04T01:49:00.362Z,-1.60
2023-03-04T01:51:27.849Z,-1.80
2023-03-04T01:53:57.236Z,-1.80
2023-03-04T01:56:36.607Z,-1.80
2023-03-04T01:59:17.379Z,-1.80
2023-03-04T02:01:56.211Z,-1.90
2023-03-04T02:04:29.429Z,-1.90
2023-03-04T02:06:58.142Z,-1.80
2023-03-04T02:09:25.659Z,-1.80
2023-03-04T02:11:53.817Z,-1.80
2023-03-04T02:14:21.726Z,-1.90
2023-03-04T02:16:49.540Z,-1.90
2023-03-04T02:19:45.729Z,-1.90
2023-03-04T02:22:13.158Z,-1.80
2023-03-04T02:24:47.538Z,-1.80
2023-03-04T02:27:14.712Z,-1.90
2023-03-04T02:29:42.125Z,-1.90
2023-03-04T02:32:13.186Z,-1.90
2023-03-04T02:34:48.136Z,-1.90
2023-03-04T02:37:17.166Z,-1.90
2023-03-04T02:39:46.621Z,-2.00
2023-03-04T02:42:14.188Z,-1.90
2023-03-04T02:44:46.549Z,-2.00
2023-03-04T02:47:17.966Z,-2.00
2023-03-04T02:49:46.138Z,-2.00
2023-03-04T02:52:25.247Z,-2.00
2023-03-04T02:54:52.471Z,-2.00
2023-03-04T02:57:19.666Z,-2.00
2023-03-04T02:59:47.102Z,-2.00
2023-03-04T03:02:14.256Z,-2.00
2023-03-04T03:04:42.128Z,-2.00
2023-03-04T03:07:09.316Z,-2.00
2023-03-04T03:09:36.645Z,-2.10
2023-03-04T03:12:04.148Z,-2.00
2023-03-04T03:14:31.346Z,-2.00
2023-03-04T03:16:58.778Z,-2.00
2023-03-04T03:19:25.935Z,-2.00
2023-03-04T03:21:53.316Z,-2.10
2023-03-04T03:24:20.701Z,-2.10
2023-03-04T03:26:47.892Z,-2.10
2023-03-04T03:29:15.296Z,-2.20
2023-03-04T03:31:42.724Z,-2.30
2023-03-04T03:34:10.173Z,-2.30
2023-03-04T03:36:37.636Z,-2.40
2023-03-04T03:39:05.539Z,-2.50
2023-03-04T03:41:32.594Z,-2.50
2023-03-04T03:43:59.703Z,-2.50
2023-03-04T03:46:27.449Z,-2.50
2023-03-04T03:48:54.774Z,-2.50
2023-03-04T03:51:22.174Z,-2.60
2023-03-04T03:53:49.356Z,-2.60
2023-03-04T03:56:16.507Z,-2.60
2023-03-04T03:58:43.734Z,-2.70
2023-03-04T04:01:10.894Z,-2.70
2023-03-04T04:03:38.242Z,-2.80
2023-03-04T04:06:05.649Z,-2.70
2023-03-04T04:08:33.718Z,-2.80
2023-03-04T04:11:01.167Z,-2.80
2023-03-04T04:13:28.523Z,-2.80
2023-03-04T04:15:55.787Z,-2.80
2023-03-04T04:18:24.098Z,-2.90
2023-03-04T04:20:53.888Z,-2.90
2023-03-04T04:23:21.494Z,-2.90
2023-03-04T04:25:49.094Z,-2.90
2023-03-04T04:28:16.539Z,-2.90
2023-03-04T04:30:43.680Z,-2.90
2023-03-04T04:33:11.180Z,-2.90
2023-03-04T04:35:39.272Z,-2.90
2023-03-04T04:38:07.499Z,-2.90
2023-03-04T04:40:35.420Z,-3.00
2023-03-04T04:43:03.122Z,-3.00
2023-03-04T04:45:30.505Z,-3.00
2023-03-04T04:47:57.785Z,-3.00
2023-03-04T04:50:26.079Z,-3.00
2023-03-04T04:52:53.329Z,-3.00
2023-03-04T04:55:21.427Z,-2.90
2023-03-04T04:57:48.855Z,-3.00
2023-03-04T05:00:16.531Z,-3.00
2023-03-04T05:02:43.574Z,-3.00
2023-03-04T05:05:11.182Z,-3.10
2023-03-04T05:07:38.583Z,-3.10
2023-03-04T05:10:06.010Z,-3.10
2023-03-04T05:12:33.114Z,-3.20
2023-03-04T05:15:00.478Z,-3.10
2023-03-04T05:17:27.917Z,-3.20
2023-03-04T05:19:55.106Z,-3.20
2023-03-04T05:22:22.542Z,-3.30
2023-03-04T05:24:49.718Z,-3.30
2023-03-04T05:27:16.868Z,-3.40
2023-03-04T05:29:44.867Z,-3.50
2023-03-04T05:32:12.397Z,-3.50
2023-03-04T05:34:39.874Z,-3.50
2023-03-04T05:37:07.510Z,-3.50
2023-03-04T05:39:34.669Z,-3.50
2023-03-04T05:42:01.854Z,-3.50
2023-03-04T05:44:29.061Z,-3.60
2023-03-04T05:46:56.481Z,-3.50
2023-03-04T05:49:23.989Z,-3.60
2023-03-04T05:51:51.087Z,-3.60
2023-03-04T05:54:18.665Z,-3.60
2023-03-04T05:56:46.204Z,-3.70
2023-03-04T05:59:13.719Z,-3.70
2023-03-04T06:01:40.859Z,-3.60
2023-03-04T06:04:08.056Z,-3.60
2023-03-04T06:06:35.519Z,-3.70
2023-03-04T06:09:02.906Z,-3.60
2023-03-04T06:11:30.229Z,-3.50
2023-03-04T06:13:57.552Z,-3.50
2023-03-04T06:16:24.829Z,-3.40
2023-03-04T06:18:51.996Z,-3.30
2023-03-04T06:21:19.080Z,-3.30
2023-03-04T06:23:47.201Z,-3.30
2023-03-04T06:26:15.812Z,-3.20
2023-03-04T06:28:44.174Z,-3.10
2023-03-04T06:31:13.162Z,-3.10
2023-03-04T06:33:40.693Z,-3.10
2023-03-04T06:36:08.071Z,-3.00
2023-03-04T06:38:35.347Z,-2.90
2023-03-04T06:41:10.912Z,-2.80
2023-03-04T06:43:38.532Z,-2.90
2023-03-04T06:46:08.010Z,-3.00
2023-03-04T06:48:35.419Z,-3.00
2023-03-04T06:51:12.865Z,-3.10
2023-03-04T06:53:42.254Z,-3.20
2023-03-04T06:56:11.416Z,-3.20
2023-03-04T06:58:39.425Z,-3.20
2023-03-04T07:01:18.568Z,-3.20
2023-03-04T07:03:46.708Z,-3.20
2023-03-04T07:06:16.006Z,-3.10
2023-03-04T07:08:43.802Z,-3.10
2023-03-04T07:11:11.928Z,-3.10
2023-03-04T07:13:39.427Z,-3.00
2023-03-04T07:16:08.943Z,-3.00
2023-03-04T07:18:37.523Z,-2.80
2023-03-04T07:21:06.966Z,-2.80
2023-03-04T07:23:35.007Z,-2.70
2023-03-04T07:26:02.807Z,-2.50
2023-03-04T07:28:30.415Z,-2.40
2023-03-04T07:30:57.872Z,-2.40
2023-03-04T07:33:25.060Z,-2.30
2023-03-04T07:36:00.233Z,-2.30
2023-03-04T07:38:27.738Z,-2.30
2023-03-04T07:40:59.798Z,-2.10
2023-03-04T07:43:27.417Z,-2.10
2023-03-04T07:46:00.240Z,-2.10
2023-03-04T07:48:27.811Z,-2.00
2023-03-04T07:51:16.757Z,-2.00
2023-03-04T07:53:47.663Z,-1.90
2023-03-04T07:56:21.104Z,-1.90
2023-03-04T07:58:48.889Z,-1.80
2023-03-04T08:01:21.028Z,-1.60
2023-03-04T08:03:50.555Z,-1.30
2023-03-04T08:06:20.726Z,-1.10
2023-03-04T08:08:49.244Z,-1.10
2023-03-04T08:11:19.764Z,-1.40
2023-03-04T08:13:48.344Z,-1.40
2023-03-04T08:16:18.549Z,-1.50
2023-03-04T08:18:51.202Z,-1.60
2023-03-04T08:21:19.694Z,-1.60
2023-03-04T08:23:47.787Z,-1.60
2023-03-04T08:26:31.057Z,-1.60
2023-03-04T08:28:58.512Z,-1.50
2023-03-04T08:31:26.480Z,-1.30
2023-03-04T08:33:55.327Z,-1.10
2023-03-04T08:36:22.749Z,-1.40
2023-03-04T08:38:50.243Z,-1.40
2023-03-04T08:41:17.474Z,-1.60
2023-03-04T08:43:44.685Z,-1.40
2023-03-04T08:46:12.133Z,-1.30
2023-03-04T08:48:39.552Z,-1.00
2023-03-04T08:51:13.003Z,-1.00
2023-03-04T08:53:40.821Z,-1.00
2023-03-04T08:56:09.866Z,-1.00
2023-03-04T08:58:37.636Z,-1.10
2023-03-04T09:01:08.702Z,-1.70
2023-03-04T09:03:36.259Z,-1.70
2023-03-04T09:06:04.447Z,-1.60
2023-03-04T09:08:31.800Z,-1.50
2023-03-04T09:10:59.320Z,-1.50
2023-03-04T09:13:30.479Z,-1.40
2023-03-04T09:15:57.902Z,-1.00
2023-03-04T09:18:26.207Z,-0.90
2023-03-04T09:20:54.052Z,-0.50
2023-03-04T09:23:25.474Z,-0.20
2023-03-04T09:25:55.771Z,0.00
2023-03-04T09:28:24.651Z,0.70
2023-03-04T09:30:52.942Z,0.60
2023-03-04T09:33:23.446Z,1.10
2023-03-04T09:35:53.021Z,1.30
2023-03-04T09:38:27.076Z,1.80
2023-03-04T09:40:56.188Z,2.10
2023-03-04T09:43:31.514Z,1.40
2023-03-04T09:46:14.161Z,0.90
2023-03-04T09:48:49.848Z,0.60
2023-03-04T09:51:21.947Z,0.40
2023-03-04T09:54:05.604Z,0.40
2023-03-04T09:56:40.524Z,0.40
2023-03-04T09:59:27.373Z,0.40
2023-03-04T10:02:00.775Z,0.60
2023-03-04T10:04:51.790Z,0.50
2023-03-04T10:07:32.459Z,0.70
2023-03-04T10:10:07.606Z,0.50
2023-03-04T10:12:40.358Z,0.70
2023-03-04T10:15:17.782Z,0.70
2023-03-04T10:17:48.366Z,0.40
2023-03-04T10:21:04.234Z,0.50
2023-03-04T10:23:35.887Z,0.30
2023-03-04T10:26:16.837Z,0.40
2023-03-04T10:28:44.173Z,0.60
2023-03-04T10:31:20.580Z,0.90
2023-03-04T10:33:48.117Z,0.70
2023-03-04T10:36:32.105Z,1.10
2023-03-04T10:39:12.555Z,1.00
2023-03-04T10:41:44.869Z,0.90
2023-03-04T10:44:18.483Z,0.80
2023-03-04T10:46:49.262Z,1.10
2023-03-04T10:49:20.201Z,1.10
2023-03-04T10:51:53.434Z,1.20
2023-03-04T10:54:27.290Z,1.40
2023-03-04T10:57:06.998Z,1.20
2023-03-04T10:59:37.649Z,1.60
2023-03-04T11:02:30.590Z,1.70
2023-03-04T11:05:21.785Z,1.70
2023-03-04T11:07:57.490Z,1.80
2023-03-04T11:10:32.240Z,1.60
2023-03-04T11:12:59.302Z,1.50
2023-03-04T11:15:31.418Z,1.50
2023-03-04T11:18:04.527Z,1.60
2023-03-04T11:20:49.631Z,1.70
2023-03-04T11:23:19.673Z,1.80
2023-03-04T11:26:12.464Z,2.00
2023-03-04T11:28:53.547Z,2.00
2023-03-04T11:31:56.000Z,2.00
2023-03-04T11:34:27.435Z,2.00
2023-03-04T11:37:10.870Z,1.80
2023-03-04T11:39:54.915Z,1.80
2023-03-04T11:42:42.411Z,1.90
2023-03-04T11:45:29.158Z,1.90
2023-03-04T11:48:12.746Z,1.70
2023-03-04T11:50:54.024Z,2.00
2023-03-04T11:53:41.256Z,1.90
2023-03-04T11:56:26.802Z,1.80
2023-03-04T11:59:05.090Z,1.90
2023-03-04T12:01:50.535Z,2.10
2023-03-04T12:04:52.520Z,2.10
2023-03-04T12:07:59.667Z,1.80
2023-03-04T12:10:44.312Z,1.80
2023-03-04T12:13:42.923Z,2.00
2023-03-04T12:16:46.983Z,1.90
2023-03-04T12:19:51.428Z,1.90
2023-03-04T12:22:30.376Z,1.90
2023-03-04T12:25:24.514Z,2.00
2023-03-04T12:28:10.268Z,2.10
2023-03-04T12:31:01.728Z,2.00
2023-03-04T12:33:29.298Z,1.80
2023-03-04T12:36:32.240Z,1.70
2023-03-04T12:39:38.540Z,1.40
2023-03-04T12:42:11.566Z,1.40
2023-03-04T12:44:47.976Z,1.50
2023-03-04T12:47:39.596Z,1.50
2023-03-04T12:50:21.716Z,1.70
2023-03-04T12:53:11.879Z,1.80
2023-03-04T12:55:42.157Z,1.80
2023-03-04T12:58:38.933Z,1.70
2023-03-04T13:01:27.132Z,1.80
2023-03-04T13:04:28.249Z,1.70
2023-03-04T13:07:07.699Z,1.60
2023-03-04T13:09:53.387Z,1.40
2023-03-04T13:12:24.651Z,1.60
2023-03-04T13:15:10.343Z,1.60
2023-03-04T13:17:42.114Z,1.50
2023-03-04T13:20:34.738Z,1.60
2023-03-04T13:23:26.289Z,1.50
2023-03-04T13:25:57.038Z,1.50
2023-03-04T13:28:30.273Z,1.40
2023-03-04T13:30:59.598Z,1.30
2023-03-04T13:33:26.819Z,1.20
2023-03-04T13:36:00.280Z,1.30
2023-03-04T13:38:27.720Z,1.30
2023-03-04T13:41:18.227Z,1.40
2023-03-04T13:43:50.755Z,1.00
2023-03-04T13:46:20.979Z,1.00
2023-03-04T13:48:52.164Z,1.10
2023-03-04T13:51:29.833Z,1.10
2023-03-04T13:54:00.471Z,1.10
2023-03-04T13:56:37.273Z,1.00
2023-03-04T13:59:09.225Z,1.10
2023-03-04T14:01:51.115Z,1.00
2023-03-04T14:04:22.310Z,1.00
2023-03-04T14:06:51.940Z,0.90
2023-03-04T14:09:33.830Z,1.00
2023-03-04T14:12:14.424Z,0.90
2023-03-04T14:14:49.066Z,1.00
2023-03-04T14:17:31.629Z,1.00
2023-03-04T14:20:00.336Z,0.90
2023-03-04T14:22:30.993Z,1.00
2023-03-04T14:25:22.468Z,0.80
2023-03-04T14:27:49.902Z,0.80
2023-03-04T14:30:28.804Z,0.90
2023-03-04T14:33:03.313Z,0.90
2023-03-04T14:35:32.261Z,1.00
2023-03-04T14:38:01.508Z,0.90
2023-03-04T14:40:45.359Z,0.90
2023-03-04T14:43:23.686Z,0.80
2023-03-04T14:45:54.058Z,0.80
2023-03-04T14:48:31.598Z,0.90
2023-03-04T14:51:00.115Z,0.90
2023-03-04T14:53:30.296Z,0.90
2023-03-04T14:56:07.523Z,0.90
2023-03-04T14:58:37.278Z,0.80
2023-03-04T15:01:23.592Z,0.90
2023-03-04T15:04:08.070Z,1.10
2023-03-04T15:06:47.937Z,1.00
2023-03-04T15:09:27.411Z,1.00
2023-03-04T15:12:09.075Z,1.20
2023-03-04T15:14:52.109Z,1.20
2023-03-04T15:17:38.588Z,1.20
2023-03-04T15:20:09.149Z,1.30
2023-03-04T15:22:58.849Z,1.30
2023-03-04T15:25:26.304Z,1.30
2023-03-04T15:27:54.688Z,1.20
2023-03-04T15:30:42.326Z,1.30
2023-03-04T15:33:12.264Z,1.30
2023-03-04T15:35:39.918Z,1.30
2023-03-04T15:38:08.258Z,1.40
2023-03-04T15:40:41.978Z,1.40
2023-03-04T15:43:14.966Z,1.30
2023-03-04T15:45:42.497Z,1.40
2023-03-04T15:48:12.809Z,1.40
2023-03-04T15:50:47.672Z,1.40
2023-03-04T15:53:33.917Z,1.40
2023-03-04T15:56:02.791Z,1.40
2023-03-04T15:58:34.847Z,1.30
2023-03-04T16:01:02.998Z,1.30
2023-03-04T16:03:30.298Z,1.20
2023-03-04T16:05:57.635Z,1.20
2023-03-04T16:08:25.378Z,1.20
2023-03-04T16:10:54.819Z,1.20
2023-03-04T16:13:24.284Z,1.20
2023-03-04T16:15:51.809Z,1.20
2023-03-04T16:18:18.986Z,1.10
2023-03-04T16:20:48.438Z,1.10
2023-03-04T16:23:22.287Z,1.10
2023-03-04T16:25:52.909Z,1.10
2023-03-04T16:28:20.140Z,1.10
2023-03-04T16:30:47.653Z,1.10
2023-03-04T16:33:16.558Z,1.10
2023-03-04T16:35:45.542Z,1.10
2023-03-04T16:38:21.423Z,1.10
2023-03-04T16:40:49.647Z,1.00
2023-03-04T16:43:17.003Z,1.00
2023-03-04T16:45:45.106Z,1.10
2023-03-04T16:48:14.121Z,1.00
2023-03-04T16:50:42.715Z,1.00
2023-03-04T16:53:25.078Z,1.00
2023-03-04T16:55:53.250Z,1.00
2023-03-04T16:58:20.476Z,0.90
2023-03-04T17:00:47.896Z,0.90
2023-03-04T17:03:15.244Z,1.00
2023-03-04T17:05:43.266Z,0.90
2023-03-04T17:08:10.593Z,0.90
2023-03-04T17:10:37.999Z,0.90
2023-03-04T17:13:06.476Z,0.90
2023-03-04T17:15:33.611Z,0.80
2023-03-04T17:18:00.693Z,0.80
2023-03-04T17:20:28.029Z,0.70
2023-03-04T17:22:55.315Z,0.70
2023-03-04T17:25:22.366Z,0.60
2023-03-04T17:27:50.656Z,0.60
2023-03-04T17:30:18.339Z,0.50
2023-03-04T17:32:45.825Z,0.50
2023-03-04T17:35:12.975Z,0.50
2023-03-04T17:37:41.105Z,0.50
2023-03-04T17:40:14.255Z,0.40
2023-03-04T17:42:42.844Z,0.40
2023-03-04T17:45:11.670Z,0.30
2023-03-04T17:47:39.397Z,0.30
2023-03-04T17:50:08.784Z,0.30
2023-03-04T17:52:36.304Z,0.20
2023-03-04T17:55:03.827Z,0.20
2023-03-04T17:57:30.984Z,0.30
2023-03-04T17:59:58.207Z,0.30
2023-03-04T18:02:25.526Z,0.20
2023-03-04T18:04:52.958Z,0.30
2023-03-04T18:07:20.161Z,0.30
2023-03-04T18:09:47.663Z,0.30
2023-03-04T18:12:15.166Z,0.20
2023-03-04T18:14:42.774Z,0.20
2023-03-04T18:17:10.161Z,0.20
2023-03-04T18:19:37.547Z,0.00
2023-03-04T18:22:04.905Z,0.00
2023-03-04T18:24:32.386Z,0.10
2023-03-04T18:26:59.995Z,0.10
2023-03-04T18:29:28.517Z,0.00
2023-03-04T18:31:56.096Z,0.00
2023-03-04T18:34:23.319Z,-0.10
2023-03-04T18:36:52.023Z,-0.10
2023-03-04T18:39:19.193Z,-0.20
2023-03-04T18:41:46.309Z,-0.20
2023-03-04T18:44:13.419Z,-0.20
2023-03-04T18:46:51.164Z,-0.30
2023-03-04T18:49:19.634Z,-0.40
2023-03-04T18:51:46.794Z,-0.40
2023-03-04T18:54:14.110Z,-0.40
2023-03-04T18:56:51.700Z,-0.50
2023-03-04T18:59:28.059Z,-0.40
2023-03-04T19:01:55.699Z,-0.40
2023-03-04T19:04:27.250Z,-0.60
2023-03-04T19:06:54.939Z,-0.70
2023-03-04T19:09:22.198Z,-0.60
2023-03-04T19:11:49.280Z,-0.80
2023-03-04T19:14:19.012Z,-0.80
2023-03-04T19:16:47.176Z,-1.00
2023-03-04T19:19:16.662Z,-1.00
2023-03-04T19:21:47.076Z,-1.10
2023-03-04T19:24:14.389Z,-1.10
2023-03-04T19:26:41.950Z,-1.10
2023-03-04T19:29:09.359Z,-1.20
2023-03-04T19:31:41.346Z,-1.40
2023-03-04T19:34:09.647Z,-1.40
2023-03-04T19:36:37.579Z,-1.30
2023-03-04T19:39:05.776Z,-1.40
2023-03-04T19:41:33.222Z,-1.40
2023-03-04T19:44:00.615Z,-1.30
2023-03-04T19:46:28.719Z,-1.20
2023-03-04T19:48:56.661Z,-1.20
2023-03-04T19:51:27.916Z,-1.10
2023-03-04T19:53:56.200Z,-1.10
2023-03-04T19:56:24.074Z,-1.00
2023-03-04T19:58:55.249Z,-1.00
2023-03-04T20:01:31.284Z,-1.00
2023-03-04T20:04:04.875Z,-0.90
2023-03-04T20:06:32.446Z,-0.90
2023-03-04T20:09:01.335Z,-0.80
2023-03-04T20:11:29.919Z,-0.90
2023-03-04T20:13:58.749Z,-0.90
2023-03-04T20:16:26.986Z,-0.90
2023-03-04T20:18:58.016Z,-0.90
2023-03-04T20:21:29.829Z,-0.90
2023-03-04T20:24:01.888Z,-1.00
2023-03-04T20:26:31.219Z,-1.00
2023-03-04T20:28:59.628Z,-1.00
2023-03-04T20:31:31.613Z,-1.00
2023-03-04T20:34:00.148Z,-1.10
2023-03-04T20:36:30.008Z,-1.20
2023-03-04T20:39:02.368Z,-1.30
2023-03-04T20:41:32.758Z,-1.40
2023-03-04T20:44:00.152Z,-1.40
2023-03-04T20:46:39.295Z,-1.40
2023-03-04T20:49:08.845Z,-1.60
2023-03-04T20:51:36.808Z,-1.60
2023-03-04T20:54:05.500Z,-1.60
2023-03-04T20:56:33.714Z,-1.70
2023-03-04T20:59:04.105Z,-1.70
2023-03-04T21:01:32.177Z,-1.70
2023-03-04T21:04:01.332Z,-1.80
2023-03-04T21:06:29.446Z,-1.80
2023-03-04T21:08:59.946Z,-1.80
2023-03-04T21:11:27.845Z,-1.90
2023-03-04T21:13:58.187Z,-2.00
2023-03-04T21:16:30.487Z,-2.00
2023-03-04T21:19:00.556Z,-2.00
2023-03-04T21:21:30.815Z,-2.00
2023-03-04T21:24:00.224Z,-2.00
2023-03-04T21:26:27.852Z,-2.10
2023-03-04T21:28:58.530Z,-2.20
2023-03-04T21:31:30.189Z,-2.20
2023-03-04T21:34:00.793Z,-2.30
2023-03-04T21:36:28.574Z,-2.40
2023-03-04T21:38:56.401Z,-2.40
2023-03-04T21:41:25.193Z,-2.60
2023-03-04T21:43:55.773Z,-2.50
2023-03-04T21:46:23.590Z,-2.60
2023-03-04T21:48:50.917Z,-2.50
2023-03-04T21:51:18.409Z,-2.60
2023-03-04T21:53:45.767Z,-2.60
2023-03-04T21:56:13.531Z,-2.60
2023-03-04T21:58:42.468Z,-2.60
2023-03-04T22:01:15.380Z,-2.60
2023-03-04T22:03:43.252Z,-2.70
2023-03-04T22:06:18.277Z,-2.70
2023-03-04T22:08:47.207Z,-2.80
2023-03-04T22:11:16.532Z,-2.80
2023-03-04T22:13:44.522Z,-2.80
2023-03-04T22:16:11.952Z,-2.80
2023-03-04T22:18:43.018Z,-2.90
2023-03-04T22:21:12.615Z,-2.90
2023-03-04T22:23:41.175Z,-3.00
2023-03-04T22:26:19.464Z,-3.00
2023-03-04T22:28:48.972Z,-3.00
2023-03-04T22:31:42.770Z,-3.00
2023-03-04T22:34:13.110Z,-2.90
2023-03-04T22:36:43.312Z,-3.00
2023-03-04T22:39:13.690Z,-2.90
2023-03-04T22:41:41.070Z,-3.00
2023-03-04T22:44:08.720Z,-3.00
2023-03-04T22:46:38.368Z,-3.00
2023-03-04T22:49:11.231Z,-3.00
2023-03-04T22:51:41.583Z,-3.10
2023-03-04T22:54:11.155Z,-3.10
2023-03-04T22:56:39.316Z,-3.20
2023-03-04T22:59:06.838Z,-3.10
2023-03-04T23:01:34.206Z,-3.20
2023-03-04T23:04:01.946Z,-3.20
2023-03-04T23:06:31.019Z,-3.20
2023-03-04T23:08:59.330Z,-3.20
2023-03-04T23:11:30.517Z,-3.20
2023-03-04T23:13:58.488Z,-3.10
2023-03-04T23:16:28.265Z,-3.10
2023-03-04T23:18:57.108Z,-3.20
2023-03-04T23:21:28.524Z,-3.30
2023-03-04T23:23:56.409Z,-3.30
2023-03-04T23:26:33.234Z,-3.30
2023-03-04T23:29:02.054Z,-3.40
2023-03-04T23:31:30.683Z,-3.30
2023-03-04T23:33:59.164Z,-3.40
2023-03-04T23:36:28.857Z,-3.40
2023-03-04T23:38:57.389Z,-3.40
2023-03-04T23:41:27.731Z,-3.50
2023-03-04T23:43:56.657Z,-3.50
2023-03-04T23:46:24.884Z,-3.50
2023-03-04T23:48:53.847Z,-3.50
2023-03-04T23:51:23.635Z,-3.50
2023-03-04T23:53:51.015Z,-3.50
2023-03-04T23:56:21.518Z,-3.50
2023-03-04T23:58:49.391Z,-3.50
